Time;durP1;ratioP1;P1;durP2;ratioP2;P2;SDS_P1;SDS_P2;PMS_P1;PMS_P2;Temp;Humidity;BMP_temperature;BMP_pressure;BME280_temperature;BME280_humidity;BME280_pressure;Samples;Min_cycle;Max_cycle;Signal;HPM_P1;HPM_P2
2022/07/01 00:01:36;;;;;;;22.73;19.98;;;17.00;91.70;;;;;;5013032;28;20529;-76
2022/07/01 00:04:02;;;;;;;17.38;15.48;;;17.00;91.60;;;;;;5006962;28;20137;-78
2022/07/01 00:06:28;;;;;;;17.50;14.68;;;17.10;91.30;;;;;;5006136;28;20136;-77
2022/07/01 00:08:53;;;;;;;17.38;15.13;;;17.10;91.10;;;;;;5010662;28;20041;-77
2022/07/01 00:11:19;;;;;;;16.45;14.63;;;17.10;91.00;;;;;;5003682;28;20031;-76
2022/07/01 00:13:45;;;;;;;17.50;15.70;;;17.10;90.80;;;;;;4994985;28;20034;-78
2022/07/01 00:16:10;;;;;;;19.08;16.42;;;17.00;90.60;;;;;;5004051;28;20030;-76
2022/07/01 00:18:36;;;;;;;18.05;15.15;;;17.00;90.80;;;;;;4994321;28;20136;-77
2022/07/01 00:21:02;;;;;;;18.58;16.67;;;17.00;90.90;;;;;;5003012;28;20069;-77
2022/07/01 00:23:28;;;;;;;19.80;17.70;;;17.00;91.00;;;;;;4993552;28;20018;-78
2022/07/01 00:25:54;;;;;;;18.42;16.50;;;17.00;90.90;;;;;;5000414;28;20048;-77
2022/07/01 00:28:20;;;;;;;19.70;17.58;;;17.00;90.80;;;;;;5012525;28;20484;-77
2022/07/01 00:30:46;;;;;;;21.58;18.10;;;16.90;90.80;;;;;;5008742;28;20030;-78
2022/07/01 00:33:11;;;;;;;23.70;19.33;;;16.90;90.80;;;;;;5002379;28;20490;-77
2022/07/01 00:35:37;;;;;;;22.50;19.15;;;16.90;90.90;;;;;;5008391;28;20021;-81
2022/07/01 00:38:03;;;;;;;24.10;21.50;;;17.00;91.00;;;;;;5014079;28;20079;-80
2022/07/01 00:40:29;;;;;;;23.05;19.08;;;16.90;91.10;;;;;;5006170;28;20046;-80
2022/07/01 00:42:55;;;;;;;21.67;19.17;;;17.00;91.10;;;;;;5009447;28;20026;-79
2022/07/01 00:45:21;;;;;;;22.50;19.52;;;17.00;91.10;;;;;;5007822;28;20026;-78
2022/07/01 00:47:47;;;;;;;24.70;22.02;;;17.00;91.10;;;;;;5002110;28;20038;-78
2022/07/01 00:50:14;;;;;;;25.60;21.58;;;17.00;91.10;;;;;;5011768;28;20102;-77
2022/07/01 00:52:41;;;;;;;20.52;17.88;;;17.00;91.10;;;;;;5001831;28;20022;-77
2022/07/01 00:55:10;;;;;;;24.63;20.65;;;17.00;91.00;;;;;;4997931;28;20014;-80
2022/07/01 00:57:37;;;;;;;23.73;21.17;;;16.90;91.10;;;;;;5004188;28;20046;-77
2022/07/01 01:00:12;;;;;;;22.98;20.58;;;16.90;91.40;;;;;;4994142;28;20107;-77
2022/07/01 01:02:39;;;;;;;23.92;20.33;;;16.80;91.60;;;;;;5000993;28;20018;-82
2022/07/01 01:05:07;;;;;;;26.20;23.40;;;16.80;91.60;;;;;;5012054;28;20085;-81
2022/07/01 01:07:32;;;;;;;22.88;20.45;;;16.80;91.70;;;;;;5010009;28;20041;-78
2022/07/01 01:10:02;;;;;;;27.67;23.80;;;16.80;91.70;;;;;;5012240;28;20026;-80
2022/07/01 01:12:29;;;;;;;25.65;22.25;;;16.80;91.80;;;;;;5001555;28;20054;-78
2022/07/01 01:14:56;;;;;;;30.50;25.25;;;16.70;91.60;;;;;;5014673;28;20021;-77
2022/07/01 01:17:23;;;;;;;30.73;26.35;;;16.70;92.10;;;;;;5012171;28;20033;-80
2022/07/01 01:19:50;;;;;;;36.97;30.52;;;16.60;92.00;;;;;;5010535;28;20030;-77
2022/07/01 01:22:18;;;;;;;38.97;32.20;;;16.60;92.20;;;;;;5006031;28;20022;-78
2022/07/01 01:24:44;;;;;;;42.72;34.35;;;16.60;92.20;;;;;;4993198;28;20384;-80
2022/07/01 01:27:11;;;;;;;45.08;34.53;;;16.60;92.20;;;;;;4995351;28;20065;-78
2022/07/01 01:29:37;;;;;;;46.47;36.30;;;16.60;92.20;;;;;;5006282;28;20424;-76
2022/07/01 01:32:05;;;;;;;42.40;35.20;;;16.60;92.10;;;;;;5004983;28;20033;-76
2022/07/01 01:34:36;;;;;;;49.35;37.22;;;16.60;92.20;;;;;;5005567;28;20024;-77
2022/07/01 01:37:03;;;;;;;44.92;34.70;;;16.60;92.20;;;;;;5006241;28;20118;-77
2022/07/01 01:39:29;;;;;;;50.17;41.05;;;16.60;92.10;;;;;;5010347;28;20100;-78
2022/07/01 01:41:54;;;;;;;49.88;40.17;;;16.60;91.90;;;;;;5008385;28;20498;-78
2022/07/01 01:44:20;;;;;;;54.80;42.55;;;16.60;91.80;;;;;;5001211;28;20041;-77
2022/07/01 01:46:46;;;;;;;46.25;35.78;;;16.60;91.90;;;;;;5008590;28;20053;-78
2022/07/01 01:49:11;;;;;;;52.25;42.95;;;16.50;91.80;;;;;;5009033;28;20034;-78
2022/07/01 01:51:39;;;;;;;52.50;39.38;;;16.50;91.90;;;;;;5011583;28;20018;-77
2022/07/01 01:54:07;;;;;;;49.03;39.95;;;16.60;92.00;;;;;;4993965;28;20033;-78
2022/07/01 01:56:33;;;;;;;51.95;41.00;;;16.50;92.00;;;;;;5011651;28;20029;-78
2022/07/01 01:58:59;;;;;;;48.00;39.10;;;16.60;91.80;;;;;;5000200;28;20035;-78
2022/07/01 02:01:25;;;;;;;47.92;40.58;;;16.60;91.70;;;;;;5009698;28;20026;-77
2022/07/01 02:03:52;;;;;;;44.22;37.38;;;16.60;91.60;;;;;;4997939;28;20054;-78
2022/07/01 02:06:19;;;;;;;53.53;43.53;;;16.50;91.40;;;;;;5010207;28;20145;-77
2022/07/01 02:08:44;;;;;;;47.47;39.35;;;16.50;91.50;;;;;;5005377;28;20124;-77
2022/07/01 02:11:10;;;;;;;45.25;37.10;;;16.50;91.50;;;;;;4991592;28;20177;-76
2022/07/01 02:13:36;;;;;;;47.75;41.40;;;16.50;91.40;;;;;;4997937;28;20010;-77
2022/07/01 02:16:03;;;;;;;47.95;41.17;;;16.50;91.40;;;;;;4995680;28;20117;-79
2022/07/01 02:18:30;;;;;;;53.35;42.97;;;16.50;91.50;;;;;;4994600;28;20492;-78
2022/07/01 02:20:55;;;;;;;51.33;43.97;;;16.50;91.40;;;;;;4996897;28;20026;-77
2022/07/01 02:23:21;;;;;;;54.88;43.53;;;16.40;91.50;;;;;;4991960;28;20038;-77
2022/07/01 02:25:47;;;;;;;48.30;41.75;;;16.40;91.50;;;;;;5000134;28;20022;-78
2022/07/01 02:28:14;;;;;;;50.22;44.60;;;16.40;91.50;;;;;;4991571;28;20036;-77
2022/07/01 02:30:41;;;;;;;51.03;43.78;;;16.40;91.70;;;;;;5002235;28;20116;-78
2022/07/01 02:33:07;;;;;;;54.95;44.72;;;16.50;91.80;;;;;;4992736;28;20099;-78
2022/07/01 02:35:35;;;;;;;42.35;35.95;;;16.40;91.40;;;;;;5002719;28;20137;-77
2022/07/01 02:38:01;;;;;;;49.45;41.38;;;16.40;91.30;;;;;;4995564;28;20049;-79
2022/07/01 02:40:27;;;;;;;41.80;37.08;;;16.50;91.20;;;;;;4997078;28;20022;-77
2022/07/01 02:42:52;;;;;;;45.90;37.90;;;16.50;90.90;;;;;;5007790;28;20030;-79
2022/07/01 02:45:18;;;;;;;48.22;39.08;;;16.40;90.80;;;;;;4996183;28;20077;-78
2022/07/01 02:47:44;;;;;;;40.47;36.00;;;16.30;90.90;;;;;;5009580;28;20037;-77
2022/07/01 02:50:11;;;;;;;33.25;28.40;;;16.40;90.90;;;;;;5005532;28;20175;-78
2022/07/01 02:52:39;;;;;;;44.50;37.40;;;16.30;90.80;;;;;;4991923;28;20117;-78
2022/07/01 02:55:06;;;;;;;44.30;36.20;;;16.20;91.00;;;;;;4993244;28;20031;-77
2022/07/01 02:57:32;;;;;;;43.45;34.38;;;16.10;90.90;;;;;;5005451;28;20536;-77
2022/07/01 02:59:58;;;;;;;39.15;31.60;;;16.10;91.10;;;;;;5005850;28;20105;-78
2022/07/01 03:02:24;;;;;;;41.58;35.40;;;16.10;91.20;;;;;;4996398;28;20053;-78
2022/07/01 03:04:51;;;;;;;44.00;37.08;;;16.10;91.20;;;;;;4993835;28;20512;-77
2022/07/01 03:07:18;;;;;;;47.45;38.63;;;16.10;91.20;;;;;;5001016;28;20122;-78
2022/07/01 03:09:43;;;;;;;43.42;34.63;;;16.00;91.40;;;;;;5007774;28;20049;-79
2022/07/01 03:12:27;;;;;;;40.25;33.33;;;16.00;91.50;;;;;;4998590;28;20077;-76
2022/07/01 03:15:01;;;;;;;42.40;33.60;;;16.00;91.50;;;;;;5007571;28;20120;-76
2022/07/01 03:17:29;;;;;;;41.78;33.72;;;16.10;91.60;;;;;;4997126;28;20113;-78
2022/07/01 03:19:56;;;;;;;48.40;37.45;;;16.10;91.60;;;;;;5009333;28;20374;-77
2022/07/01 03:22:23;;;;;;;46.47;38.55;;;16.10;91.70;;;;;;5002576;28;20592;-78
2022/07/01 03:24:49;;;;;;;42.65;35.25;;;16.10;91.80;;;;;;5011715;28;20473;-78
2022/07/01 03:27:16;;;;;;;50.70;40.17;;;16.10;91.90;;;;;;4997344;28;20033;-77
2022/07/01 03:29:42;;;;;;;47.55;39.40;;;16.10;91.90;;;;;;4994257;28;20066;-78
2022/07/01 03:32:09;;;;;;;49.35;38.83;;;16.10;91.70;;;;;;5005740;28;20050;-78
2022/07/01 03:34:36;;;;;;;44.10;37.63;;;16.10;91.90;;;;;;5004005;28;20026;-79
2022/07/01 03:37:04;;;;;;;38.58;32.05;;;16.00;91.80;;;;;;5001618;28;20022;-78
2022/07/01 03:39:30;;;;;;;45.38;37.97;;;15.90;91.70;;;;;;5013495;28;20468;-76
2022/07/01 03:41:55;;;;;;;50.40;38.92;;;15.90;91.80;;;;;;5006780;28;20057;-76
2022/07/01 03:44:21;;;;;;;50.20;35.85;;;15.90;91.80;;;;;;4995295;28;20027;-77
2022/07/01 03:46:46;;;;;;;44.47;35.90;;;15.90;91.70;;;;;;4997072;28;20018;-77
2022/07/01 03:49:12;;;;;;;45.95;37.40;;;16.00;91.60;;;;;;5008693;28;20033;-78
2022/07/01 03:51:38;;;;;;;44.88;37.75;;;15.90;91.50;;;;;;5011726;28;20400;-78
2022/07/01 03:56:48;;;;;;;47.85;37.25;;;15.90;91.50;;;;;;5008034;28;20157;-78
2022/07/01 03:59:13;;;;;;;45.72;34.40;;;15.90;91.50;;;;;;5006420;28;20573;-78
2022/07/01 04:01:39;;;;;;;48.97;36.90;;;15.90;91.60;;;;;;5009644;28;20018;-77
2022/07/01 04:04:04;;;;;;;48.35;38.55;;;16.00;91.90;;;;;;5003170;28;20056;-77
2022/07/01 04:06:30;;;;;;;45.70;37.95;;;16.00;91.70;;;;;;5009517;28;20022;-77
2022/07/01 04:08:56;;;;;;;54.97;40.85;;;16.00;91.70;;;;;;5011035;28;20044;-78
2022/07/01 04:11:22;;;;;;;51.53;38.60;;;16.10;91.80;;;;;;5011491;28;20104;-76
2022/07/01 04:13:51;;;;;;;46.88;37.45;;;16.10;91.70;;;;;;5001051;28;20018;-78
2022/07/01 04:16:17;;;;;;;48.65;37.75;;;16.10;91.80;;;;;;5012162;28;20026;-78
2022/07/01 04:18:43;;;;;;;39.50;30.60;;;16.10;91.80;;;;;;5000346;28;20045;-77
2022/07/01 04:23:55;;;;;;;45.60;37.35;;;16.10;91.70;;;;;;5001112;28;20037;-78
2022/07/01 04:26:20;;;;;;;42.85;34.08;;;16.10;91.90;;;;;;5013277;28;20092;-78
2022/07/01 04:28:46;;;;;;;46.03;35.28;;;16.00;91.80;;;;;;4998825;28;20066;-79
2022/07/01 04:31:11;;;;;;;42.95;32.30;;;16.00;91.80;;;;;;5012650;28;20030;-78
2022/07/01 04:33:38;;;;;;;39.55;30.00;;;16.10;91.90;;;;;;5001505;28;20027;-78
2022/07/01 04:36:04;;;;;;;43.20;33.47;;;16.10;91.50;;;;;;5010597;28;20083;-79
2022/07/01 04:38:29;;;;;;;40.63;31.67;;;16.20;91.60;;;;;;5007727;28;20030;-78
2022/07/01 04:43:50;;;;;;;44.25;33.42;;;16.20;91.70;;;;;;4964785;28;20041;-77
2022/07/01 04:46:15;;;;;;;43.80;33.35;;;16.30;91.60;;;;;;5009671;28;20105;-79
2022/07/01 04:48:41;;;;;;;52.00;37.15;;;16.30;91.60;;;;;;5008214;28;20034;-78
2022/07/01 04:51:07;;;;;;;45.55;32.92;;;16.30;91.70;;;;;;5012206;28;20108;-76
2022/07/01 04:53:32;;;;;;;52.17;34.75;;;16.30;91.50;;;;;;5009245;28;20076;-78
2022/07/01 04:55:58;;;;;;;48.63;34.92;;;16.30;91.50;;;;;;5012001;28;20064;-79
2022/07/01 04:58:24;;;;;;;48.70;33.83;;;16.30;91.60;;;;;;5008132;28;20033;-78
2022/07/01 05:00:51;;;;;;;48.95;34.08;;;16.30;91.40;;;;;;5003149;28;20064;-78
2022/07/01 05:03:17;;;;;;;45.00;33.53;;;16.20;91.40;;;;;;4994643;28;20042;-76
2022/07/01 05:05:43;;;;;;;41.40;29.08;;;16.30;91.40;;;;;;4999281;28;20122;-78
2022/07/01 05:08:08;;;;;;;38.25;28.23;;;16.30;91.30;;;;;;5011006;28;20121;-79
2022/07/01 05:10:34;;;;;;;43.75;31.52;;;16.20;91.20;;;;;;5003372;28;20045;-79
2022/07/01 05:13:00;;;;;;;38.70;29.60;;;16.20;91.40;;;;;;4992283;28;20034;-78
2022/07/01 05:15:25;;;;;;;40.80;30.65;;;16.20;91.20;;;;;;4997602;28;20041;-78
2022/07/01 05:23:20;;;;;;;42.40;31.80;;;16.20;91.10;;;;;;5012474;28;20149;-78
2022/07/01 05:25:45;;;;;;;40.13;27.17;;;16.30;91.10;;;;;;5006540;28;20532;-78
2022/07/01 05:28:11;;;;;;;30.80;24.23;;;16.30;91.10;;;;;;4992035;28;20042;-78
2022/07/01 05:30:36;;;;;;;40.03;28.55;;;16.30;91.00;;;;;;5000799;28;20033;-77
2022/07/01 05:33:02;;;;;;;37.90;28.08;;;16.30;90.80;;;;;;5019673;28;20037;-80
2022/07/01 05:35:28;;;;;;;34.63;25.08;;;16.40;90.50;;;;;;5014584;28;20022;-78
2022/07/01 05:37:53;;;;;;;36.70;27.48;;;16.30;90.50;;;;;;5003566;28;20064;-78
2022/07/01 05:40:19;;;;;;;36.05;25.85;;;16.40;90.40;;;;;;4996126;28;20022;-79
2022/07/01 05:42:45;;;;;;;38.70;28.77;;;16.30;90.10;;;;;;4997722;28;20030;-78
2022/07/01 05:45:10;;;;;;;41.17;28.00;;;16.30;90.30;;;;;;4994427;28;20060;-77
2022/07/01 05:47:36;;;;;;;36.83;27.00;;;16.30;90.30;;;;;;5000256;28;20117;-77
2022/07/01 05:50:01;;;;;;;30.08;21.67;;;16.40;90.60;;;;;;4991927;28;20029;-77
2022/07/01 05:52:27;;;;;;;34.45;26.33;;;16.40;90.10;;;;;;5008001;28;20108;-77
2022/07/01 05:54:53;;;;;;;38.42;28.25;;;16.40;90.20;;;;;;5006791;28;20030;-77
2022/07/01 05:57:18;;;;;;;37.90;24.25;;;16.40;90.20;;;;;;5001905;28;20054;-76
2022/07/01 05:59:44;;;;;;;38.75;27.85;;;16.40;90.10;;;;;;4991446;28;20534;-77
2022/07/01 06:02:10;;;;;;;37.90;26.15;;;16.50;90.20;;;;;;5002910;28;20027;-76
2022/07/01 06:04:35;;;;;;;36.55;26.73;;;16.50;90.20;;;;;;4989134;28;20054;-75
2022/07/01 06:07:01;;;;;;;38.92;27.05;;;16.50;90.30;;;;;;5001770;28;20121;-76
2022/07/01 06:09:27;;;;;;;35.85;25.08;;;16.60;90.30;;;;;;4990790;28;20034;-77
2022/07/01 06:11:53;;;;;;;41.92;29.55;;;16.60;90.20;;;;;;4999742;28;20029;-77
2022/07/01 06:14:18;;;;;;;38.13;29.10;;;16.60;90.10;;;;;;4992371;28;20077;-77
2022/07/01 06:16:44;;;;;;;46.17;30.52;;;16.60;90.20;;;;;;4993251;28;20117;-77
2022/07/01 06:19:11;;;;;;;41.15;29.75;;;16.60;90.10;;;;;;5003243;28;20026;-77
2022/07/01 06:21:37;;;;;;;30.17;21.17;;;16.60;90.00;;;;;;5002681;28;20026;-78
2022/07/01 06:24:03;;;;;;;25.00;18.60;;;16.60;89.40;;;;;;5003645;28;20743;-78
2022/07/01 06:26:28;;;;;;;18.75;12.52;;;16.70;87.40;;;;;;5005660;28;20018;-77
2022/07/01 06:28:54;;;;;;;15.23;10.68;;;16.80;86.50;;;;;;4999846;28;20030;-77
2022/07/01 06:31:20;;;;;;;23.20;15.38;;;17.00;85.80;;;;;;4993414;28;20026;-77
2022/07/01 06:33:45;;;;;;;38.45;29.25;;;17.20;85.40;;;;;;4998308;28;20060;-77
2022/07/01 06:36:13;;;;;;;36.10;21.77;;;17.20;85.70;;;;;;5008651;28;20055;-77
2022/07/01 06:38:39;;;;;;;18.30;13.65;;;17.20;85.20;;;;;;5000530;28;20370;-76
2022/07/01 06:43:50;;;;;;;25.42;17.77;;;17.50;83.50;;;;;;4996851;28;20045;-79
2022/07/01 06:46:15;;;;;;;21.75;14.90;;;17.50;83.20;;;;;;5023608;28;20036;-77
2022/07/01 06:48:41;;;;;;;20.00;15.45;;;17.60;83.10;;;;;;5011149;28;20034;-78
2022/07/01 06:51:07;;;;;;;36.70;25.52;;;17.60;82.70;;;;;;5007338;28;20132;-77
2022/07/01 06:53:32;;;;;;;31.10;22.50;;;17.60;83.60;;;;;;5001918;28;20953;-77
2022/07/01 06:55:58;;;;;;;31.38;23.20;;;17.60;84.00;;;;;;5001194;28;20049;-76
2022/07/01 06:58:23;;;;;;;35.17;25.20;;;17.50;84.10;;;;;;5004814;28;20667;-76
2022/07/01 07:00:49;;;;;;;34.40;23.75;;;17.40;84.80;;;;;;4998735;28;20070;-77
2022/07/01 07:03:15;;;;;;;35.25;24.10;;;17.50;85.10;;;;;;5001959;28;20089;-76
2022/07/01 07:05:40;;;;;;;35.38;24.75;;;17.50;84.40;;;;;;4994023;28;20022;-76
2022/07/01 07:08:06;;;;;;;24.95;18.90;;;17.40;84.00;;;;;;4992819;28;20640;-78
2022/07/01 07:10:32;;;;;;;27.98;20.58;;;17.40;84.20;;;;;;4994303;28;20029;-76
2022/07/01 07:12:58;;;;;;;21.13;13.20;;;17.30;84.20;;;;;;4993341;28;20030;-76
2022/07/01 07:15:23;;;;;;;17.85;12.82;;;17.40;83.60;;;;;;5005810;28;20503;-77
2022/07/01 07:17:49;;;;;;;28.08;17.77;;;17.70;82.60;;;;;;5005875;28;20288;-76
2022/07/01 07:20:15;;;;;;;16.17;11.80;;;17.90;81.80;;;;;;5002840;28;20150;-78
2022/07/01 07:22:40;;;;;;;17.30;11.95;;;18.10;80.80;;;;;;5006731;28;20141;-76
2022/07/01 07:25:06;;;;;;;22.40;16.38;;;18.40;79.80;;;;;;5004355;28;20034;-77
2022/07/01 07:27:32;;;;;;;25.15;18.20;;;18.60;78.50;;;;;;4989985;28;20445;-76
2022/07/01 07:29:57;;;;;;;18.50;12.13;;;18.70;78.60;;;;;;4992660;28;20027;-77
2022/07/01 07:32:23;;;;;;;19.70;13.80;;;18.90;77.70;;;;;;5007407;28;20030;-77
2022/07/01 07:34:48;;;;;;;21.63;15.65;;;19.10;76.80;;;;;;4997204;28;20027;-75
2022/07/01 07:37:14;;;;;;;19.55;13.70;;;19.20;76.00;;;;;;5007790;28;20033;-75
2022/07/01 07:39:40;;;;;;;20.38;13.77;;;19.40;75.70;;;;;;5004643;28;20510;-76
2022/07/01 07:42:08;;;;;;;27.15;20.58;;;19.50;74.90;;;;;;4991034;28;20114;-79
2022/07/01 07:44:33;;;;;;;25.65;19.13;;;19.50;74.70;;;;;;4995689;28;20523;-77
2022/07/01 07:46:59;;;;;;;27.98;20.83;;;19.40;75.40;;;;;;4994064;28;20030;-75
2022/07/01 07:49:25;;;;;;;21.60;16.13;;;19.40;75.40;;;;;;4992985;28;20022;-76
2022/07/01 07:51:51;;;;;;;21.80;17.58;;;19.40;75.60;;;;;;4989828;28;20026;-77
2022/07/01 07:54:17;;;;;;;23.15;17.58;;;19.40;75.50;;;;;;4999214;28;20027;-77
2022/07/01 07:56:43;;;;;;;28.13;18.15;;;19.50;75.90;;;;;;4997932;28;20429;-76
2022/07/01 07:59:08;;;;;;;20.65;14.93;;;19.50;74.10;;;;;;5004829;28;20025;-77
2022/07/01 08:01:34;;;;;;;21.98;15.65;;;19.40;74.50;;;;;;5006857;28;20018;-80
2022/07/01 08:04:00;;;;;;;22.23;15.48;;;19.40;74.70;;;;;;5009029;28;20057;-79
2022/07/01 08:06:26;;;;;;;22.33;15.65;;;19.50;74.90;;;;;;5006410;28;20014;-80
2022/07/01 08:08:52;;;;;;;16.65;11.30;;;19.40;74.10;;;;;;4992890;28;20038;-78
2022/07/01 08:11:17;;;;;;;17.88;11.00;;;19.40;75.00;;;;;;5004873;28;20088;-80
2022/07/01 08:13:43;;;;;;;22.30;12.68;;;19.60;75.00;;;;;;4991528;28;20092;-77
2022/07/01 08:16:09;;;;;;;20.27;14.15;;;19.70;74.20;;;;;;5004396;28;20022;-77
2022/07/01 08:18:35;;;;;;;16.52;11.55;;;19.90;74.10;;;;;;5008138;28;20033;-79
2022/07/01 08:21:01;;;;;;;19.88;11.75;;;20.10;72.90;;;;;;5001819;28;20050;-77
2022/07/01 08:23:27;;;;;;;15.68;10.95;;;20.20;72.20;;;;;;5005896;28;20444;-79
2022/07/01 08:25:52;;;;;;;15.15;11.02;;;20.50;71.70;;;;;;4996797;28;20026;-79
2022/07/01 08:28:18;;;;;;;10.43;7.88;;;20.50;70.90;;;;;;5006793;28;20128;-77
2022/07/01 08:30:44;;;;;;;13.45;8.43;;;20.40;70.80;;;;;;5008586;28;20042;-82
2022/07/01 08:33:10;;;;;;;13.80;7.85;;;20.30;70.00;;;;;;4995680;28;20113;-80
2022/07/01 08:35:36;;;;;;;16.45;8.75;;;20.20;70.50;;;;;;4996878;28;20101;-78
2022/07/01 08:38:02;;;;;;;12.88;7.20;;;20.10;71.10;;;;;;5005445;28;20073;-78
2022/07/01 08:40:30;;;;;;;11.07;5.13;;;20.00;70.30;;;;;;5007381;28;20160;-78
2022/07/01 08:42:58;;;;;;;13.90;6.35;;;19.80;69.60;;;;;;5009689;28;20026;-77
2022/07/01 08:45:26;;;;;;;12.25;5.68;;;19.90;70.70;;;;;;5010734;28;20091;-78
2022/07/01 08:47:55;;;;;;;12.65;6.05;;;20.10;71.00;;;;;;5005468;28;20062;-81
2022/07/01 08:50:21;;;;;;;10.27;4.38;;;20.20;69.50;;;;;;4992852;28;20030;-78
2022/07/01 08:52:46;;;;;;;7.30;3.75;;;20.30;68.80;;;;;;5004014;28;20044;-78
2022/07/01 08:55:12;;;;;;;10.50;3.67;;;20.40;67.90;;;;;;4997034;28;20022;-78
2022/07/01 08:57:38;;;;;;;11.23;4.38;;;20.40;68.20;;;;;;5007387;28;20044;-77
2022/07/01 09:00:05;;;;;;;8.70;3.75;;;20.60;68.10;;;;;;4990902;28;20038;-78
2022/07/01 09:02:53;;;;;;;8.75;3.70;;;20.70;66.00;;;;;;5001776;28;20057;-78
2022/07/01 09:05:22;;;;;;;9.13;2.92;;;20.70;66.70;;;;;;4991826;28;20096;-78
2022/07/01 09:07:48;;;;;;;9.95;3.58;;;20.70;65.60;;;;;;4994378;28;20061;-78
2022/07/01 09:10:18;;;;;;;8.55;2.80;;;20.80;64.00;;;;;;5008891;28;20021;-79
2022/07/01 09:12:46;;;;;;;10.75;3.17;;;21.00;64.70;;;;;;5006510;28;20026;-77
2022/07/01 09:15:26;;;;;;;9.98;2.92;;;21.30;62.90;;;;;;4993760;28;20026;-77
2022/07/01 09:17:53;;;;;;;6.43;2.67;;;21.30;62.20;;;;;;4998908;28;20414;-77
2022/07/01 09:20:31;;;;;;;10.65;2.80;;;21.30;62.90;;;;;;5018663;28;20053;-77
2022/07/01 09:23:05;;;;;;;6.57;1.92;;;21.40;62.30;;;;;;5007140;28;20025;-78
2022/07/01 09:25:53;;;;;;;6.30;2.50;;;21.70;64.20;;;;;;5011448;28;20036;-80
2022/07/01 09:28:19;;;;;;;6.25;2.35;;;21.80;64.70;;;;;;5006447;28;20050;-77
2022/07/01 09:30:47;;;;;;;9.35;2.85;;;21.90;63.80;;;;;;5013841;28;20064;-78
2022/07/01 09:33:16;;;;;;;6.68;2.00;;;21.90;63.20;;;;;;5015513;28;20025;-77
2022/07/01 09:35:43;;;;;;;5.85;2.25;;;21.90;61.50;;;;;;5022195;28;20111;-75
2022/07/01 09:38:14;;;;;;;5.13;2.03;;;22.00;63.30;;;;;;5016370;28;20023;-78
2022/07/01 09:40:49;;;;;;;6.55;2.30;;;22.10;62.30;;;;;;5004620;28;20496;-77
2022/07/01 09:43:21;;;;;;;7.18;1.73;;;22.10;59.00;;;;;;5006179;28;20819;-77
2022/07/01 09:46:06;;;;;;;6.88;1.83;;;22.30;62.20;;;;;;5004064;28;20396;-77
2022/07/01 09:48:35;;;;;;;7.78;1.60;;;22.60;62.20;;;;;;5004963;28;20491;-77
2022/07/01 09:51:02;;;;;;;3.55;1.25;;;22.70;60.40;;;;;;5004395;28;20033;-78
2022/07/01 09:53:28;;;;;;;4.22;1.25;;;22.70;59.80;;;;;;5005581;28;20018;-78
2022/07/01 09:55:54;;;;;;;2.97;1.20;;;22.60;57.20;;;;;;4992458;28;20027;-77
2022/07/01 09:58:19;;;;;;;5.50;1.60;;;22.60;59.80;;;;;;4992208;28;20417;-77
2022/07/01 10:00:45;;;;;;;6.32;2.00;;;22.60;59.60;;;;;;5002112;28;20112;-78
2022/07/01 10:03:12;;;;;;;3.08;1.15;;;22.50;57.80;;;;;;4991738;28;20034;-77
2022/07/01 10:05:47;;;;;;;6.05;2.13;;;22.50;61.30;;;;;;5001485;28;20097;-77
2022/07/01 10:08:35;;;;;;;7.75;1.83;;;22.50;60.60;;;;;;4992321;28;20022;-78
2022/07/01 10:11:29;;;;;;;5.25;1.30;;;22.50;59.70;;;;;;4998743;28;20080;-76
2022/07/01 10:13:58;;;;;;;3.30;1.33;;;22.30;59.00;;;;;;5000133;28;21076;-76
2022/07/01 10:16:24;;;;;;;4.80;1.70;;;22.20;60.00;;;;;;5000873;28;20034;-76
2022/07/01 10:18:50;;;;;;;4.15;1.20;;;22.10;59.80;;;;;;5001785;28;20033;-78
2022/07/01 10:21:30;;;;;;;3.60;1.23;;;22.10;61.80;;;;;;4999211;28;20141;-78
2022/07/01 10:24:16;;;;;;;3.70;1.00;;;22.10;59.80;;;;;;5005018;28;20020;-76
2022/07/01 10:26:42;;;;;;;2.92;1.17;;;22.20;55.20;;;;;;4999360;28;20028;-77
2022/07/01 10:29:28;;;;;;;7.15;1.45;;;22.50;53.90;;;;;;5006525;28;20042;-77
2022/07/01 10:31:54;;;;;;;5.43;1.52;;;22.70;52.40;;;;;;4999309;28;20065;-79
2022/07/01 10:34:22;;;;;;;8.15;1.38;;;22.80;51.20;;;;;;5005664;28;20044;-78
2022/07/01 10:37:01;;;;;;;7.13;1.23;;;22.90;51.70;;;;;;4997797;28;20491;-78
2022/07/01 10:39:27;;;;;;;4.28;1.58;;;23.00;54.10;;;;;;4992676;28;20430;-78
2022/07/01 10:41:53;;;;;;;4.20;1.42;;;23.10;53.30;;;;;;5006947;28;20033;-78
2022/07/01 10:44:19;;;;;;;5.82;1.35;;;23.10;52.70;;;;;;5008304;28;20025;-77
2022/07/01 10:46:57;;;;;;;4.72;1.27;;;23.10;51.60;;;;;;4994542;28;20675;-76
2022/07/01 10:49:41;;;;;;;5.80;1.48;;;23.00;51.60;;;;;;5006938;28;20499;-77
2022/07/01 10:52:18;;;;;;;4.60;1.30;;;23.10;51.50;;;;;;4998966;28;20543;-76
2022/07/01 10:54:45;;;;;;;9.98;1.65;;;23.20;52.20;;;;;;4989241;28;20027;-78
2022/07/01 10:57:19;;;;;;;6.68;1.33;;;23.40;52.20;;;;;;5003937;28;20026;-78
2022/07/01 11:00:15;;;;;;;5.25;1.42;;;23.30;50.20;;;;;;5010566;28;20074;-77
2022/07/01 11:02:40;;;;;;;3.92;1.05;;;23.00;51.30;;;;;;4972799;28;20030;-76
2022/07/01 11:05:14;;;;;;;3.55;1.33;;;22.90;51.40;;;;;;4990697;28;20057;-77
2022/07/01 11:07:47;;;;;;;3.00;1.15;;;23.10;50.20;;;;;;5001382;28;20507;-78
2022/07/01 11:10:15;;;;;;;5.53;1.05;;;23.40;51.00;;;;;;4991137;28;20030;-77
2022/07/01 11:12:43;;;;;;;5.20;1.40;;;23.30;49.20;;;;;;5004016;28;20126;-77
2022/07/01 11:15:11;;;;;;;3.53;1.40;;;23.00;50.20;;;;;;4990881;28;20025;-79
2022/07/01 11:17:42;;;;;;;5.15;1.17;;;23.10;49.90;;;;;;5002477;28;20084;-78
2022/07/01 11:20:08;;;;;;;2.78;0.68;;;23.10;50.10;;;;;;4989829;28;20449;-78
2022/07/01 11:22:34;;;;;;;3.38;1.02;;;23.10;52.60;;;;;;5002302;28;20024;-77
2022/07/01 11:25:03;;;;;;;7.15;1.65;;;23.00;49.80;;;;;;4989547;28;20022;-77
2022/07/01 11:27:29;;;;;;;3.83;1.10;;;23.10;50.20;;;;;;4995244;28;20062;-81
2022/07/01 11:29:58;;;;;;;5.85;1.80;;;23.20;50.80;;;;;;5008354;28;20252;-76
2022/07/01 11:32:29;;;;;;;6.05;1.17;;;23.00;49.70;;;;;;5000397;28;20022;-78
2022/07/01 11:34:59;;;;;;;6.38;1.30;;;22.60;51.00;;;;;;5007183;28;20022;-77
2022/07/01 11:40:32;;;;;;;3.88;1.23;;;22.80;51.40;;;;;;4972009;28;19910;-78
2022/07/01 11:42:58;;;;;;;6.15;1.52;;;23.20;50.40;;;;;;5000305;28;20038;-77
2022/07/01 11:45:25;;;;;;;2.65;0.88;;;23.50;52.80;;;;;;4993808;28;20018;-80
2022/07/01 11:47:51;;;;;;;4.97;1.05;;;23.80;54.60;;;;;;5006179;28;20065;-78
2022/07/01 11:50:17;;;;;;;3.20;1.13;;;24.10;51.60;;;;;;5009863;28;20513;-78
2022/07/01 11:52:43;;;;;;;3.15;0.90;;;24.00;50.50;;;;;;5006226;28;20019;-78
2022/07/01 11:55:09;;;;;;;3.92;0.90;;;23.70;48.50;;;;;;4997358;28;20026;-78
2022/07/01 11:57:34;;;;;;;3.85;1.00;;;23.70;51.10;;;;;;5009916;28;20113;-78
2022/07/01 12:00:14;;;;;;;4.72;0.80;;;23.70;54.40;;;;;;4993671;28;20034;-77
2022/07/01 12:02:40;;;;;;;2.83;0.75;;;23.60;49.00;;;;;;4995149;28;20018;-80
2022/07/01 12:05:06;;;;;;;4.70;0.88;;;23.80;54.40;;;;;;4993441;28;20042;-77
2022/07/01 12:07:32;;;;;;;3.55;0.95;;;24.00;54.30;;;;;;4994115;28;20041;-79
2022/07/01 12:10:01;;;;;;;4.45;1.10;;;24.20;51.40;;;;;;5000211;28;20440;-77
2022/07/01 12:12:27;;;;;;;4.28;1.05;;;24.40;48.40;;;;;;4996464;28;20025;-77
2022/07/01 12:14:58;;;;;;;4.93;1.10;;;24.40;51.70;;;;;;5003670;28;20488;-77
2022/07/01 12:17:27;;;;;;;3.55;0.90;;;24.40;47.30;;;;;;4993929;28;20022;-75
2022/07/01 12:19:54;;;;;;;2.88;0.90;;;24.50;49.40;;;;;;5007692;28;20042;-79
2022/07/01 12:22:26;;;;;;;5.72;1.00;;;24.50;48.30;;;;;;4993122;28;20033;-78
2022/07/01 12:25:03;;;;;;;3.25;0.73;;;24.50;46.30;;;;;;4996595;28;20026;-78
2022/07/01 12:27:32;;;;;;;3.30;0.68;;;24.40;48.90;;;;;;5011626;28;20062;-77
2022/07/01 12:29:58;;;;;;;4.15;0.85;;;24.70;49.70;;;;;;5006745;28;20065;-77
2022/07/01 12:32:26;;;;;;;4.88;1.15;;;24.80;47.80;;;;;;5010592;28;20104;-77
2022/07/01 12:35:01;;;;;;;3.15;0.90;;;24.90;51.80;;;;;;5003072;28;20493;-77
2022/07/01 12:37:32;;;;;;;4.30;1.25;;;25.10;50.10;;;;;;4994965;28;20029;-77
2022/07/01 12:40:06;;;;;;;4.20;1.10;;;25.30;48.00;;;;;;5006480;28;20424;-78
2022/07/01 12:42:43;;;;;;;4.20;1.10;;;25.50;46.90;;;;;;4993101;28;20037;-78
2022/07/01 12:45:21;;;;;;;5.38;1.17;;;25.50;44.60;;;;;;4996007;28;20045;-77
2022/07/01 12:47:52;;;;;;;4.82;1.10;;;25.20;51.10;;;;;;5022333;28;20038;-77
2022/07/01 12:50:24;;;;;;;4.57;1.10;;;24.90;46.00;;;;;;5007318;28;20140;-77
2022/07/01 12:53:02;;;;;;;4.05;1.20;;;24.90;47.80;;;;;;4992925;28;20022;-78
2022/07/01 12:55:36;;;;;;;3.33;1.10;;;24.90;49.80;;;;;;5000052;28;20030;-76